sensor_id;sensor_type;location;lat;lon;timestamp;temperature;humidity
13673;DHT22;6909;52.202;9.876;2023-07-31T00:00:04;15.60;1.00
13673;DHT22;6909;52.202;9.876;2023-07-31T00:02:31;15.60;26.30
13673;DHT22;6909;52.202;9.876;2023-07-31T00:04:58;15.60;15.70
13673;DHT22;6909;52.202;9.876;2023-07-31T00:07:25;15.70;29.00
13673;DHT22;6909;52.202;9.876;2023-07-31T00:09:53;15.70;99.80
13673;DHT22;6909;52.202;9.876;2023-07-31T00:12:22;15.70;98.90
13673;DHT22;6909;52.202;9.876;2023-07-31T00:14:48;15.70;98.20
13673;DHT22;6909;52.202;9.876;2023-07-31T00:17:17;15.70;98.50
13673;DHT22;6909;52.202;9.876;2023-07-31T00:19:44;15.70;48.30
13673;DHT22;6909;52.202;9.876;2023-07-31T00:22:11;15.70;23.50
13673;DHT22;6909;52.202;9.876;2023-07-31T00:24:38;15.60;41.40
13673;DHT22;6909;52.202;9.876;2023-07-31T00:27:06;15.70;89.20
13673;DHT22;6909;52.202;9.876;2023-07-31T00:29:33;15.70;95.30
13673;DHT22;6909;52.202;9.876;2023-07-31T00:32:00;15.70;94.20
13673;DHT22;6909;52.202;9.876;2023-07-31T00:34:26;15.80;35.70
13673;DHT22;6909;52.202;9.876;2023-07-31T00:36:53;15.80;22.10
13673;DHT22;6909;52.202;9.876;2023-07-31T00:39:20;15.90;1.00
13673;DHT22;6909;52.202;9.876;2023-07-31T00:41:46;15.80;1.00
13673;DHT22;6909;52.202;9.876;2023-07-31T00:44:15;15.80;1.00
13673;DHT22;6909;52.202;9.876;2023-07-31T00:46:41;15.80;1.00
13673;DHT22;6909;52.202;9.876;2023-07-31T00:49:08;15.90;1.00
13673;DHT22;6909;52.202;9.876;2023-07-31T00:51:36;15.90;1.00
13673;DHT22;6909;52.202;9.876;2023-07-31T00:54:03;15.90;1.00
13673;DHT22;6909;52.202;9.876;2023-07-31T00:56:30;15.90;1.00
13673;DHT22;6909;52.202;9.876;2023-07-31T00:58:57;15.90;1.00
13673;DHT22;6909;52.202;9.876;2023-07-31T01:01:25;15.90;1.00
13673;DHT22;6909;52.202;9.876;2023-07-31T01:03:53;15.90;1.00
13673;DHT22;6909;52.202;9.876;2023-07-31T01:06:27;15.80;1.00
13673;DHT22;6909;52.202;9.876;2023-07-31T01:09:00;15.80;24.30
13673;DHT22;6909;52.202;9.876;2023-07-31T01:11:30;15.80;49.40
13673;DHT22;6909;52.202;9.876;2023-07-31T01:13:59;15.80;99.90
13673;DHT22;6909;52.202;9.876;2023-07-31T01:16:28;15.80;99.90
13673;DHT22;6909;52.202;9.876;2023-07-31T01:18:54;15.80;99.90
13673;DHT22;6909;52.202;9.876;2023-07-31T01:21:48;15.80;99.90
13673;DHT22;6909;52.202;9.876;2023-07-31T01:24:22;15.80;99.90
13673;DHT22;6909;52.202;9.876;2023-07-31T01:26:55;15.80;99.90
13673;DHT22;6909;52.202;9.876;2023-07-31T01:29:29;15.70;99.90
13673;DHT22;6909;52.202;9.876;2023-07-31T01:32:01;15.70;99.90
13673;DHT22;6909;52.202;9.876;2023-07-31T01:34:29;15.70;99.90
13673;DHT22;6909;52.202;9.876;2023-07-31T01:36:56;15.70;99.90
13673;DHT22;6909;52.202;9.876;2023-07-31T01:39:23;15.70;99.90
13673;DHT22;6909;52.202;9.876;2023-07-31T01:41:51;15.70;99.90
13673;DHT22;6909;52.202;9.876;2023-07-31T01:44:18;15.70;99.90
13673;DHT22;6909;52.202;9.876;2023-07-31T01:46:44;15.70;99.90
13673;DHT22;6909;52.202;9.876;2023-07-31T01:49:11;15.70;99.90
13673;DHT22;6909;52.202;9.876;2023-07-31T01:51:38;15.70;99.90
13673;DHT22;6909;52.202;9.876;2023-07-31T01:54:05;15.60;99.90
13673;DHT22;6909;52.202;9.876;2023-07-31T01:56:31;15.60;99.90
13673;DHT22;6909;52.202;9.876;2023-07-31T01:58:59;15.70;99.90
13673;DHT22;6909;52.202;9.876;2023-07-31T02:01:26;15.70;99.90
13673;DHT22;6909;52.202;9.876;2023-07-31T02:03:53;15.60;99.90
13673;DHT22;6909;52.202;9.876;2023-07-31T02:06:20;15.60;99.90
13673;DHT22;6909;52.202;9.876;2023-07-31T02:08:48;15.70;99.90
13673;DHT22;6909;52.202;9.876;2023-07-31T02:11:14;15.60;99.90
13673;DHT22;6909;52.202;9.876;2023-07-31T02:13:41;15.70;99.90
13673;DHT22;6909;52.202;9.876;2023-07-31T02:16:09;15.70;99.90
13673;DHT22;6909;52.202;9.876;2023-07-31T02:18:36;15.70;99.90
13673;DHT22;6909;52.202;9.876;2023-07-31T02:21:03;15.70;99.90
13673;DHT22;6909;52.202;9.876;2023-07-31T02:23:29;15.70;99.90
13673;DHT22;6909;52.202;9.876;2023-07-31T02:25:56;15.70;99.90
13673;DHT22;6909;52.202;9.876;2023-07-31T02:28:23;15.70;99.90
13673;DHT22;6909;52.202;9.876;2023-07-31T02:30:50;15.70;99.90
13673;DHT22;6909;52.202;9.876;2023-07-31T02:33:18;15.70;99.90
13673;DHT22;6909;52.202;9.876;2023-07-31T02:35:45;15.80;99.90
13673;DHT22;6909;52.202;9.876;2023-07-31T02:38:12;15.70;99.90
13673;DHT22;6909;52.202;9.876;2023-07-31T02:40:39;15.70;99.90
13673;DHT22;6909;52.202;9.876;2023-07-31T02:43:06;15.70;99.90
13673;DHT22;6909;52.202;9.876;2023-07-31T02:45:33;15.70;99.90
13673;DHT22;6909;52.202;9.876;2023-07-31T02:48:00;15.80;99.90
13673;DHT22;6909;52.202;9.876;2023-07-31T02:50:28;15.80;99.90
13673;DHT22;6909;52.202;9.876;2023-07-31T02:52:55;15.70;99.90
13673;DHT22;6909;52.202;9.876;2023-07-31T02:55:21;15.70;99.90
13673;DHT22;6909;52.202;9.876;2023-07-31T02:57:48;15.70;99.90
13673;DHT22;6909;52.202;9.876;2023-07-31T03:00:15;15.80;99.90
13673;DHT22;6909;52.202;9.876;2023-07-31T03:02:42;15.70;99.90
13673;DHT22;6909;52.202;9.876;2023-07-31T03:05:08;15.80;99.90
13673;DHT22;6909;52.202;9.876;2023-07-31T03:07:36;15.70;99.90
13673;DHT22;6909;52.202;9.876;2023-07-31T03:10:04;15.80;99.90
13673;DHT22;6909;52.202;9.876;2023-07-31T03:12:30;15.70;99.90
13673;DHT22;6909;52.202;9.876;2023-07-31T03:14:57;15.70;99.90
13673;DHT22;6909;52.202;9.876;2023-07-31T03:17:24;15.80;99.90
13673;DHT22;6909;52.202;9.876;2023-07-31T03:19:51;15.80;99.90
13673;DHT22;6909;52.202;9.876;2023-07-31T03:22:17;15.70;99.90
13673;DHT22;6909;52.202;9.876;2023-07-31T03:24:46;15.70;99.90
13673;DHT22;6909;52.202;9.876;2023-07-31T03:27:12;15.70;99.90
13673;DHT22;6909;52.202;9.876;2023-07-31T03:29:39;15.70;99.90
13673;DHT22;6909;52.202;9.876;2023-07-31T03:32:06;15.70;99.90
13673;DHT22;6909;52.202;9.876;2023-07-31T03:34:33;15.80;99.90
13673;DHT22;6909;52.202;9.876;2023-07-31T03:37:00;15.70;99.90
13673;DHT22;6909;52.202;9.876;2023-07-31T03:39:26;15.80;99.90
13673;DHT22;6909;52.202;9.876;2023-07-31T03:41:54;15.70;99.90
13673;DHT22;6909;52.202;9.876;2023-07-31T03:44:21;15.70;99.90
13673;DHT22;6909;52.202;9.876;2023-07-31T03:46:48;15.60;99.90
13673;DHT22;6909;52.202;9.876;2023-07-31T03:49:15;15.60;99.90
13673;DHT22;6909;52.202;9.876;2023-07-31T03:51:41;15.50;99.90
13673;DHT22;6909;52.202;9.876;2023-07-31T03:54:08;15.50;99.90
13673;DHT22;6909;52.202;9.876;2023-07-31T03:56:35;15.50;99.90
13673;DHT22;6909;52.202;9.876;2023-07-31T03:59:05;15.50;99.90
13673;DHT22;6909;52.202;9.876;2023-07-31T04:01:31;15.50;99.90
13673;DHT22;6909;52.202;9.876;2023-07-31T04:03:58;15.40;99.90
13673;DHT22;6909;52.202;9.876;2023-07-31T04:06:25;15.40;99.90
13673;DHT22;6909;52.202;9.876;2023-07-31T04:08:51;15.40;99.90
13673;DHT22;6909;52.202;9.876;2023-07-31T04:11:18;15.30;99.90
13673;DHT22;6909;52.202;9.876;2023-07-31T04:13:45;15.30;99.90
13673;DHT22;6909;52.202;9.876;2023-07-31T04:16:13;15.20;99.90
13673;DHT22;6909;52.202;9.876;2023-07-31T04:18:39;15.20;99.90
13673;DHT22;6909;52.202;9.876;2023-07-31T04:21:06;15.20;99.90
13673;DHT22;6909;52.202;9.876;2023-07-31T04:23:33;15.10;99.90
13673;DHT22;6909;52.202;9.876;2023-07-31T04:26:00;15.10;99.90
13673;DHT22;6909;52.202;9.876;2023-07-31T04:28:26;15.10;99.90
13673;DHT22;6909;52.202;9.876;2023-07-31T04:30:53;15.10;99.90
13673;DHT22;6909;52.202;9.876;2023-07-31T04:33:21;15.20;99.90
13673;DHT22;6909;52.202;9.876;2023-07-31T04:35:50;15.20;99.90
13673;DHT22;6909;52.202;9.876;2023-07-31T04:38:18;15.20;99.90
13673;DHT22;6909;52.202;9.876;2023-07-31T04:40:45;15.20;99.90
13673;DHT22;6909;52.202;9.876;2023-07-31T04:43:11;15.10;99.90
13673;DHT22;6909;52.202;9.876;2023-07-31T04:45:38;15.10;99.90
13673;DHT22;6909;52.202;9.876;2023-07-31T04:48:05;15.10;99.90
13673;DHT22;6909;52.202;9.876;2023-07-31T04:50:33;15.10;99.90
13673;DHT22;6909;52.202;9.876;2023-07-31T04:53:00;15.10;99.90
13673;DHT22;6909;52.202;9.876;2023-07-31T04:55:27;15.10;99.90
13673;DHT22;6909;52.202;9.876;2023-07-31T04:57:54;15.10;99.90
13673;DHT22;6909;52.202;9.876;2023-07-31T05:00:20;15.20;99.90
13673;DHT22;6909;52.202;9.876;2023-07-31T05:02:47;15.20;99.90
13673;DHT22;6909;52.202;9.876;2023-07-31T05:05:14;15.30;99.90
13673;DHT22;6909;52.202;9.876;2023-07-31T05:07:42;15.40;99.90
13673;DHT22;6909;52.202;9.876;2023-07-31T05:10:09;15.40;99.90
13673;DHT22;6909;52.202;9.876;2023-07-31T05:12:36;15.50;99.90
13673;DHT22;6909;52.202;9.876;2023-07-31T05:15:03;15.50;99.90
13673;DHT22;6909;52.202;9.876;2023-07-31T05:17:30;15.60;99.90
13673;DHT22;6909;52.202;9.876;2023-07-31T05:19:57;15.60;99.90
13673;DHT22;6909;52.202;9.876;2023-07-31T05:22:24;15.60;99.90
13673;DHT22;6909;52.202;9.876;2023-07-31T05:24:52;15.60;99.90
13673;DHT22;6909;52.202;9.876;2023-07-31T05:27:19;15.70;99.90
13673;DHT22;6909;52.202;9.876;2023-07-31T05:29:46;15.70;99.90
13673;DHT22;6909;52.202;9.876;2023-07-31T05:32:13;15.70;99.90
13673;DHT22;6909;52.202;9.876;2023-07-31T05:34:40;15.70;99.90
13673;DHT22;6909;52.202;9.876;2023-07-31T05:37:07;15.70;99.90
13673;DHT22;6909;52.202;9.876;2023-07-31T05:39:34;15.80;99.90
13673;DHT22;6909;52.202;9.876;2023-07-31T05:42:02;15.80;99.90
13673;DHT22;6909;52.202;9.876;2023-07-31T05:44:29;15.80;99.90
13673;DHT22;6909;52.202;9.876;2023-07-31T05:46:56;15.90;99.90
13673;DHT22;6909;52.202;9.876;2023-07-31T05:49:22;15.90;99.90
13673;DHT22;6909;52.202;9.876;2023-07-31T05:51:49;15.90;99.90
13673;DHT22;6909;52.202;9.876;2023-07-31T05:54:16;16.00;99.90
13673;DHT22;6909;52.202;9.876;2023-07-31T05:56:42;16.00;99.90
13673;DHT22;6909;52.202;9.876;2023-07-31T05:59:12;16.00;99.90
13673;DHT22;6909;52.202;9.876;2023-07-31T06:01:39;16.00;99.90
13673;DHT22;6909;52.202;9.876;2023-07-31T06:04:06;16.10;99.90
13673;DHT22;6909;52.202;9.876;2023-07-31T06:06:33;16.10;99.90
13673;DHT22;6909;52.202;9.876;2023-07-31T06:09:00;16.10;99.90
13673;DHT22;6909;52.202;9.876;2023-07-31T06:11:29;16.10;99.90
13673;DHT22;6909;52.202;9.876;2023-07-31T06:13:57;16.10;99.90
13673;DHT22;6909;52.202;9.876;2023-07-31T06:16:26;16.10;99.90
13673;DHT22;6909;52.202;9.876;2023-07-31T06:18:52;16.10;99.90
13673;DHT22;6909;52.202;9.876;2023-07-31T06:21:19;16.10;99.90
13673;DHT22;6909;52.202;9.876;2023-07-31T06:23:46;16.10;99.90
13673;DHT22;6909;52.202;9.876;2023-07-31T06:26:13;16.10;99.90
13673;DHT22;6909;52.202;9.876;2023-07-31T06:28:40;16.10;99.90
13673;DHT22;6909;52.202;9.876;2023-07-31T06:31:06;16.20;99.90
13673;DHT22;6909;52.202;9.876;2023-07-31T06:33:34;16.20;99.90
13673;DHT22;6909;52.202;9.876;2023-07-31T06:36:01;16.20;99.90
13673;DHT22;6909;52.202;9.876;2023-07-31T06:38:28;16.20;99.90
13673;DHT22;6909;52.202;9.876;2023-07-31T06:40:54;16.10;99.90
13673;DHT22;6909;52.202;9.876;2023-07-31T06:43:21;16.20;99.90
13673;DHT22;6909;52.202;9.876;2023-07-31T06:45:48;16.10;99.90
13673;DHT22;6909;52.202;9.876;2023-07-31T06:48:16;16.20;99.90
13673;DHT22;6909;52.202;9.876;2023-07-31T06:50:44;16.20;99.90
13673;DHT22;6909;52.202;9.876;2023-07-31T06:53:11;16.10;99.90
13673;DHT22;6909;52.202;9.876;2023-07-31T06:55:38;16.20;99.90
13673;DHT22;6909;52.202;9.876;2023-07-31T06:58:04;16.10;99.90
13673;DHT22;6909;52.202;9.876;2023-07-31T07:00:31;16.00;99.90
13673;DHT22;6909;52.202;9.876;2023-07-31T07:02:59;16.10;99.90
13673;DHT22;6909;52.202;9.876;2023-07-31T07:05:25;16.10;99.90
13673;DHT22;6909;52.202;9.876;2023-07-31T07:07:53;16.10;99.90
13673;DHT22;6909;52.202;9.876;2023-07-31T07:10:20;16.00;99.90
13673;DHT22;6909;52.202;9.876;2023-07-31T07:12:48;16.00;99.90
13673;DHT22;6909;52.202;9.876;2023-07-31T07:15:14;16.00;99.90
13673;DHT22;6909;52.202;9.876;2023-07-31T07:17:41;16.00;99.90
13673;DHT22;6909;52.202;9.876;2023-07-31T07:20:08;16.00;99.90
13673;DHT22;6909;52.202;9.876;2023-07-31T07:22:35;16.00;99.90
13673;DHT22;6909;52.202;9.876;2023-07-31T07:25:04;16.10;99.90
13673;DHT22;6909;52.202;9.876;2023-07-31T07:27:32;16.10;99.90
13673;DHT22;6909;52.202;9.876;2023-07-31T07:29:59;16.10;99.90
13673;DHT22;6909;52.202;9.876;2023-07-31T07:32:26;16.20;99.90
13673;DHT22;6909;52.202;9.876;2023-07-31T07:34:53;16.20;99.90
13673;DHT22;6909;52.202;9.876;2023-07-31T07:37:19;16.20;99.90
13673;DHT22;6909;52.202;9.876;2023-07-31T07:39:46;16.30;99.90
13673;DHT22;6909;52.202;9.876;2023-07-31T07:42:14;16.20;99.90
13673;DHT22;6909;52.202;9.876;2023-07-31T07:44:41;16.30;99.90
13673;DHT22;6909;52.202;9.876;2023-07-31T07:47:08;16.30;99.90
13673;DHT22;6909;52.202;9.876;2023-07-31T07:49:35;16.30;99.90
13673;DHT22;6909;52.202;9.876;2023-07-31T07:52:02;16.40;99.90
13673;DHT22;6909;52.202;9.876;2023-07-31T07:54:30;16.40;99.90
13673;DHT22;6909;52.202;9.876;2023-07-31T07:56:57;16.50;99.90
13673;DHT22;6909;52.202;9.876;2023-07-31T07:59:25;16.50;99.90
13673;DHT22;6909;52.202;9.876;2023-07-31T08:01:51;16.50;99.90
13673;DHT22;6909;52.202;9.876;2023-07-31T08:04:18;16.60;99.90
13673;DHT22;6909;52.202;9.876;2023-07-31T08:06:45;16.50;99.90
13673;DHT22;6909;52.202;9.876;2023-07-31T08:09:12;16.60;99.90
13673;DHT22;6909;52.202;9.876;2023-07-31T08:11:39;16.50;99.90
13673;DHT22;6909;52.202;9.876;2023-07-31T08:14:05;16.60;99.90
13673;DHT22;6909;52.202;9.876;2023-07-31T08:16:33;16.70;99.90
13673;DHT22;6909;52.202;9.876;2023-07-31T08:19:00;16.70;99.90
13673;DHT22;6909;52.202;9.876;2023-07-31T08:21:27;16.80;99.90
13673;DHT22;6909;52.202;9.876;2023-07-31T08:23:54;16.90;99.90
13673;DHT22;6909;52.202;9.876;2023-07-31T08:26:20;16.90;99.90
13673;DHT22;6909;52.202;9.876;2023-07-31T08:28:47;17.00;99.90
13673;DHT22;6909;52.202;9.876;2023-07-31T08:31:14;17.20;99.90
13673;DHT22;6909;52.202;9.876;2023-07-31T08:33:42;17.20;99.90
13673;DHT22;6909;52.202;9.876;2023-07-31T08:36:09;17.10;99.90
13673;DHT22;6909;52.202;9.876;2023-07-31T08:38:35;17.20;99.90
13673;DHT22;6909;52.202;9.876;2023-07-31T08:41:03;17.20;99.90
13673;DHT22;6909;52.202;9.876;2023-07-31T08:43:30;17.30;99.90
13673;DHT22;6909;52.202;9.876;2023-07-31T08:45:57;17.30;99.90
13673;DHT22;6909;52.202;9.876;2023-07-31T08:48:24;17.40;99.90
13673;DHT22;6909;52.202;9.876;2023-07-31T08:50:53;17.40;99.90
13673;DHT22;6909;52.202;9.876;2023-07-31T08:53:20;17.20;99.90
13673;DHT22;6909;52.202;9.876;2023-07-31T08:55:48;17.10;99.90
13673;DHT22;6909;52.202;9.876;2023-07-31T08:58:16;17.20;99.90
13673;DHT22;6909;52.202;9.876;2023-07-31T09:00:45;17.00;99.90
13673;DHT22;6909;52.202;9.876;2023-07-31T09:03:14;17.00;99.90
13673;DHT22;6909;52.202;9.876;2023-07-31T09:05:43;17.10;99.90
13673;DHT22;6909;52.202;9.876;2023-07-31T09:08:12;17.10;99.90
13673;DHT22;6909;52.202;9.876;2023-07-31T09:10:43;17.10;99.90
13673;DHT22;6909;52.202;9.876;2023-07-31T09:13:11;17.10;99.90
13673;DHT22;6909;52.202;9.876;2023-07-31T09:15:39;17.20;99.90
13673;DHT22;6909;52.202;9.876;2023-07-31T09:18:07;17.30;99.90
13673;DHT22;6909;52.202;9.876;2023-07-31T09:20:35;17.30;99.90
13673;DHT22;6909;52.202;9.876;2023-07-31T09:23:07;17.30;99.90
13673;DHT22;6909;52.202;9.876;2023-07-31T09:25:36;17.50;99.90
13673;DHT22;6909;52.202;9.876;2023-07-31T09:28:05;17.60;99.90
13673;DHT22;6909;52.202;9.876;2023-07-31T09:30:44;17.50;99.90
13673;DHT22;6909;52.202;9.876;2023-07-31T09:33:11;17.60;99.90
13673;DHT22;6909;52.202;9.876;2023-07-31T09:35:38;17.50;99.90
13673;DHT22;6909;52.202;9.876;2023-07-31T09:38:07;17.50;99.90
13673;DHT22;6909;52.202;9.876;2023-07-31T09:40:37;17.40;99.90
13673;DHT22;6909;52.202;9.876;2023-07-31T09:43:05;17.30;99.90
13673;DHT22;6909;52.202;9.876;2023-07-31T09:45:35;17.30;99.90
13673;DHT22;6909;52.202;9.876;2023-07-31T09:48:02;17.30;99.90
13673;DHT22;6909;52.202;9.876;2023-07-31T09:50:29;17.40;99.90
13673;DHT22;6909;52.202;9.876;2023-07-31T09:52:56;17.40;99.90
13673;DHT22;6909;52.202;9.876;2023-07-31T09:55:24;17.40;99.90
13673;DHT22;6909;52.202;9.876;2023-07-31T09:57:53;17.40;99.90
13673;DHT22;6909;52.202;9.876;2023-07-31T10:00:21;17.50;99.90
13673;DHT22;6909;52.202;9.876;2023-07-31T10:02:51;17.60;99.90
13673;DHT22;6909;52.202;9.876;2023-07-31T10:05:19;17.70;99.90
13673;DHT22;6909;52.202;9.876;2023-07-31T10:07:51;17.90;99.90
13673;DHT22;6909;52.202;9.876;2023-07-31T10:10:20;18.10;99.90
13673;DHT22;6909;52.202;9.876;2023-07-31T10:12:48;18.30;99.90
13673;DHT22;6909;52.202;9.876;2023-07-31T10:15:16;18.50;99.90
13673;DHT22;6909;52.202;9.876;2023-07-31T10:17:43;18.50;99.90
13673;DHT22;6909;52.202;9.876;2023-07-31T10:20:10;18.50;99.90
13673;DHT22;6909;52.202;9.876;2023-07-31T10:22:38;18.70;99.90
13673;DHT22;6909;52.202;9.876;2023-07-31T10:25:08;18.80;10.20
13673;DHT22;6909;52.202;9.876;2023-07-31T10:27:35;18.70;1.00
13673;DHT22;6909;52.202;9.876;2023-07-31T10:30:05;18.70;1.00
13673;DHT22;6909;52.202;9.876;2023-07-31T10:32:34;18.60;1.00
13673;DHT22;6909;52.202;9.876;2023-07-31T10:35:02;18.70;99.90
13673;DHT22;6909;52.202;9.876;2023-07-31T10:37:35;18.70;1.00
13673;DHT22;6909;52.202;9.876;2023-07-31T10:40:05;18.80;1.00
13673;DHT22;6909;52.202;9.876;2023-07-31T10:42:33;19.00;1.00
13673;DHT22;6909;52.202;9.876;2023-07-31T10:45:02;19.20;1.00
13673;DHT22;6909;52.202;9.876;2023-07-31T10:47:29;19.40;1.00
13673;DHT22;6909;52.202;9.876;2023-07-31T10:50:16;20.00;99.90
13673;DHT22;6909;52.202;9.876;2023-07-31T10:52:48;20.40;1.00
13673;DHT22;6909;52.202;9.876;2023-07-31T10:55:23;20.70;20.90
13673;DHT22;6909;52.202;9.876;2023-07-31T10:57:50;20.30;99.90
13673;DHT22;6909;52.202;9.876;2023-07-31T11:00:25;20.40;99.90
13673;DHT22;6909;52.202;9.876;2023-07-31T11:02:57;20.50;99.90
13673;DHT22;6909;52.202;9.876;2023-07-31T11:08:26;20.50;1.00
13673;DHT22;6909;52.202;9.876;2023-07-31T11:11:05;20.80;99.90
13673;DHT22;6909;52.202;9.876;2023-07-31T11:13:33;20.80;1.00
13673;DHT22;6909;52.202;9.876;2023-07-31T11:16:00;20.50;99.90
13673;DHT22;6909;52.202;9.876;2023-07-31T11:18:27;20.40;1.00
13673;DHT22;6909;52.202;9.876;2023-07-31T11:20:54;20.50;1.00
13673;DHT22;6909;52.202;9.876;2023-07-31T11:23:22;20.30;1.00
13673;DHT22;6909;52.202;9.876;2023-07-31T11:25:50;20.40;99.90
13673;DHT22;6909;52.202;9.876;2023-07-31T11:28:18;20.20;1.00
13673;DHT22;6909;52.202;9.876;2023-07-31T11:30:46;19.90;99.90
13673;DHT22;6909;52.202;9.876;2023-07-31T11:33:14;20.00;1.00
13673;DHT22;6909;52.202;9.876;2023-07-31T11:35:43;19.90;1.00
13673;DHT22;6909;52.202;9.876;2023-07-31T11:38:12;19.90;1.00
13673;DHT22;6909;52.202;9.876;2023-07-31T11:40:41;19.90;1.00
13673;DHT22;6909;52.202;9.876;2023-07-31T11:43:10;20.00;17.90
13673;DHT22;6909;52.202;9.876;2023-07-31T11:45:42;20.10;99.90
13673;DHT22;6909;52.202;9.876;2023-07-31T11:48:19;20.20;1.00
13673;DHT22;6909;52.202;9.876;2023-07-31T11:50:47;20.10;1.00
13673;DHT22;6909;52.202;9.876;2023-07-31T11:53:19;20.10;84.40
13673;DHT22;6909;52.202;9.876;2023-07-31T11:55:47;20.50;1.00
13673;DHT22;6909;52.202;9.876;2023-07-31T11:58:16;20.50;1.00
13673;DHT22;6909;52.202;9.876;2023-07-31T12:00:45;20.70;1.00
13673;DHT22;6909;52.202;9.876;2023-07-31T12:03:12;20.60;99.90
13673;DHT22;6909;52.202;9.876;2023-07-31T12:05:39;20.50;1.00
13673;DHT22;6909;52.202;9.876;2023-07-31T12:08:11;20.40;1.00
13673;DHT22;6909;52.202;9.876;2023-07-31T12:10:38;20.30;1.00
13673;DHT22;6909;52.202;9.876;2023-07-31T12:13:09;20.20;1.00
13673;DHT22;6909;52.202;9.876;2023-07-31T12:15:41;19.90;1.00
13673;DHT22;6909;52.202;9.876;2023-07-31T12:18:09;19.80;99.90
13673;DHT22;6909;52.202;9.876;2023-07-31T12:20:40;19.50;1.00
13673;DHT22;6909;52.202;9.876;2023-07-31T12:23:13;19.50;99.90
13673;DHT22;6909;52.202;9.876;2023-07-31T12:25:40;19.60;99.90
13673;DHT22;6909;52.202;9.876;2023-07-31T12:28:07;19.60;1.00
13673;DHT22;6909;52.202;9.876;2023-07-31T12:30:38;19.80;1.00
13673;DHT22;6909;52.202;9.876;2023-07-31T12:33:10;19.90;1.00
13673;DHT22;6909;52.202;9.876;2023-07-31T12:35:41;19.90;99.90
13673;DHT22;6909;52.202;9.876;2023-07-31T12:38:08;19.90;99.90
13673;DHT22;6909;52.202;9.876;2023-07-31T12:40:37;19.60;1.00
13673;DHT22;6909;52.202;9.876;2023-07-31T12:43:04;19.50;99.90
13673;DHT22;6909;52.202;9.876;2023-07-31T12:45:31;19.30;1.00
13673;DHT22;6909;52.202;9.876;2023-07-31T12:47:58;19.30;1.00
13673;DHT22;6909;52.202;9.876;2023-07-31T12:50:26;19.40;1.00
13673;DHT22;6909;52.202;9.876;2023-07-31T12:52:53;19.40;1.00
13673;DHT22;6909;52.202;9.876;2023-07-31T12:55:20;19.40;1.00
13673;DHT22;6909;52.202;9.876;2023-07-31T12:57:47;19.50;1.00
13673;DHT22;6909;52.202;9.876;2023-07-31T13:00:14;19.60;99.90
13673;DHT22;6909;52.202;9.876;2023-07-31T13:02:41;19.80;1.00
13673;DHT22;6909;52.202;9.876;2023-07-31T13:05:08;20.20;1.00
13673;DHT22;6909;52.202;9.876;2023-07-31T13:07:36;20.60;1.00
13673;DHT22;6909;52.202;9.876;2023-07-31T13:10:04;20.40;1.00
13673;DHT22;6909;52.202;9.876;2023-07-31T13:12:31;20.50;1.00
13673;DHT22;6909;52.202;9.876;2023-07-31T13:14:58;20.40;1.00
13673;DHT22;6909;52.202;9.876;2023-07-31T13:17:25;20.40;1.00
13673;DHT22;6909;52.202;9.876;2023-07-31T13:19:52;20.40;1.00
13673;DHT22;6909;52.202;9.876;2023-07-31T13:22:19;20.40;1.00
13673;DHT22;6909;52.202;9.876;2023-07-31T13:24:47;20.20;99.90
13673;DHT22;6909;52.202;9.876;2023-07-31T13:27:14;20.20;1.00
13673;DHT22;6909;52.202;9.876;2023-07-31T13:29:42;20.20;1.00
13673;DHT22;6909;52.202;9.876;2023-07-31T13:32:09;20.20;99.90
13673;DHT22;6909;52.202;9.876;2023-07-31T13:34:35;20.20;99.90
13673;DHT22;6909;52.202;9.876;2023-07-31T13:37:02;20.30;99.90
13673;DHT22;6909;52.202;9.876;2023-07-31T13:39:31;20.30;1.00
13673;DHT22;6909;52.202;9.876;2023-07-31T13:41:59;20.20;78.00
13673;DHT22;6909;52.202;9.876;2023-07-31T13:44:26;20.10;1.00
13673;DHT22;6909;52.202;9.876;2023-07-31T13:46:53;20.30;1.00
13673;DHT22;6909;52.202;9.876;2023-07-31T13:49:19;20.20;1.00
13673;DHT22;6909;52.202;9.876;2023-07-31T13:51:46;20.20;1.00
13673;DHT22;6909;52.202;9.876;2023-07-31T13:54:13;20.30;1.00
13673;DHT22;6909;52.202;9.876;2023-07-31T13:56:41;20.30;1.00
13673;DHT22;6909;52.202;9.876;2023-07-31T13:59:09;20.10;1.00
13673;DHT22;6909;52.202;9.876;2023-07-31T14:01:36;19.90;1.00
13673;DHT22;6909;52.202;9.876;2023-07-31T14:04:03;19.80;1.00
13673;DHT22;6909;52.202;9.876;2023-07-31T14:06:30;19.70;1.00
13673;DHT22;6909;52.202;9.876;2023-07-31T14:08:56;19.70;1.00
13673;DHT22;6909;52.202;9.876;2023-07-31T14:11:23;19.70;99.90
13673;DHT22;6909;52.202;9.876;2023-07-31T14:13:50;19.80;1.00
13673;DHT22;6909;52.202;9.876;2023-07-31T14:16:19;19.80;99.90
13673;DHT22;6909;52.202;9.876;2023-07-31T14:18:46;19.70;99.90
13673;DHT22;6909;52.202;9.876;2023-07-31T14:21:12;19.70;1.00
13673;DHT22;6909;52.202;9.876;2023-07-31T14:23:38;19.80;1.00
13673;DHT22;6909;52.202;9.876;2023-07-31T14:26:05;19.80;96.70
13673;DHT22;6909;52.202;9.876;2023-07-31T14:28:32;19.80;99.90
13673;DHT22;6909;52.202;9.876;2023-07-31T14:30:59;20.10;1.00
13673;DHT22;6909;52.202;9.876;2023-07-31T14:33:27;20.40;1.00
13673;DHT22;6909;52.202;9.876;2023-07-31T14:35:54;20.60;99.90
13673;DHT22;6909;52.202;9.876;2023-07-31T14:38:20;20.70;1.00
13673;DHT22;6909;52.202;9.876;2023-07-31T14:40:47;20.90;1.00
13673;DHT22;6909;52.202;9.876;2023-07-31T14:43:15;20.80;1.00
13673;DHT22;6909;52.202;9.876;2023-07-31T14:45:41;20.60;99.90
13673;DHT22;6909;52.202;9.876;2023-07-31T14:48:08;20.60;99.90
13673;DHT22;6909;52.202;9.876;2023-07-31T14:50:36;20.40;1.00
13673;DHT22;6909;52.202;9.876;2023-07-31T14:53:03;20.50;1.00
13673;DHT22;6909;52.202;9.876;2023-07-31T14:55:30;20.50;99.90
13673;DHT22;6909;52.202;9.876;2023-07-31T14:57:56;20.70;99.90
13673;DHT22;6909;52.202;9.876;2023-07-31T15:00:23;20.80;99.90
13673;DHT22;6909;52.202;9.876;2023-07-31T15:02:51;20.90;1.00
13673;DHT22;6909;52.202;9.876;2023-07-31T15:05:18;20.90;1.00
13673;DHT22;6909;52.202;9.876;2023-07-31T15:07:46;21.00;1.00
13673;DHT22;6909;52.202;9.876;2023-07-31T15:10:13;21.00;1.00
13673;DHT22;6909;52.202;9.876;2023-07-31T15:12:42;20.90;1.00
13673;DHT22;6909;52.202;9.876;2023-07-31T15:15:09;20.80;1.00
13673;DHT22;6909;52.202;9.876;2023-07-31T15:17:35;20.70;1.00
13673;DHT22;6909;52.202;9.876;2023-07-31T15:20:03;20.70;1.00
13673;DHT22;6909;52.202;9.876;2023-07-31T15:22:30;20.60;1.00
13673;DHT22;6909;52.202;9.876;2023-07-31T15:24:58;20.50;1.00
13673;DHT22;6909;52.202;9.876;2023-07-31T15:27:25;20.70;1.00
13673;DHT22;6909;52.202;9.876;2023-07-31T15:29:52;20.90;1.00
13673;DHT22;6909;52.202;9.876;2023-07-31T15:32:19;20.70;1.00
13673;DHT22;6909;52.202;9.876;2023-07-31T15:34:45;20.90;1.00
13673;DHT22;6909;52.202;9.876;2023-07-31T15:37:12;20.90;1.00
13673;DHT22;6909;52.202;9.876;2023-07-31T15:39:39;20.70;1.00
13673;DHT22;6909;52.202;9.876;2023-07-31T15:42:07;20.70;1.00
13673;DHT22;6909;52.202;9.876;2023-07-31T15:44:34;20.90;1.00
13673;DHT22;6909;52.202;9.876;2023-07-31T15:47:01;20.90;1.00
13673;DHT22;6909;52.202;9.876;2023-07-31T15:49:28;20.80;1.00
13673;DHT22;6909;52.202;9.876;2023-07-31T15:51:54;20.70;1.00
13673;DHT22;6909;52.202;9.876;2023-07-31T15:54:21;20.70;1.00